createdAt,value
2018-02-15T00:00:49.556Z,1012.28
2018-02-15T00:01:49.525Z,1012.24
2018-02-15T00:02:49.499Z,1012.32
2018-02-15T00:03:49.471Z,1012.35
2018-02-15T00:04:49.442Z,1012.38
2018-02-15T00:05:49.412Z,1012.44
2018-02-15T00:06:49.385Z,1012.44
2018-02-15T00:07:49.358Z,1012.46
2018-02-15T00:08:49.330Z,1012.40
2018-02-15T00:09:49.301Z,1012.41
2018-02-15T00:10:49.273Z,1012.46
2018-02-15T00:11:49.245Z,1012.45
2018-02-15T00:12:49.217Z,1012.47
2018-02-15T00:13:49.188Z,1012.45
2018-02-15T00:14:49.159Z,1012.40
2018-02-15T00:15:49.132Z,1012.41
2018-02-15T00:16:49.104Z,1012.34
2018-02-15T00:17:49.075Z,1012.38
2018-02-15T00:18:49.046Z,1012.40
2018-02-15T00:19:49.019Z,1012.34
2018-02-15T00:20:48.991Z,1012.27
2018-02-15T00:21:48.962Z,1012.22
2018-02-15T00:22:48.934Z,1012.17
2018-02-15T00:23:48.907Z,1012.18
2018-02-15T00:24:48.877Z,1012.16
2018-02-15T00:25:48.848Z,1012.11
2018-02-15T00:26:48.819Z,1012.09
2018-02-15T00:27:48.792Z,1012.08
2018-02-15T00:28:48.765Z,1012.07
2018-02-15T00:29:48.736Z,1012.14
2018-02-15T00:30:48.709Z,1012.09
2018-02-15T00:31:48.681Z,1012.10
2018-02-15T00:32:48.653Z,1011.98
2018-02-15T00:33:48.624Z,1011.93
2018-02-15T00:34:48.595Z,1011.81
2018-02-15T00:35:48.570Z,1011.79
2018-02-15T00:36:48.541Z,1011.75
2018-02-15T00:37:48.511Z,1011.69
2018-02-15T00:38:48.484Z,1011.67
2018-02-15T00:39:48.456Z,1011.72
2018-02-15T00:40:48.429Z,1011.70
2018-02-15T00:41:48.400Z,1011.68
2018-02-15T00:42:48.372Z,1011.68
2018-02-15T00:43:48.344Z,1011.74
2018-02-15T00:44:48.316Z,1011.71
2018-02-15T00:45:48.287Z,1011.72
2018-02-15T00:46:48.260Z,1011.74
2018-02-15T00:47:48.231Z,1011.82
2018-02-15T00:48:48.204Z,1011.83
2018-02-15T00:49:48.173Z,1011.79
2018-02-15T00:50:48.148Z,1011.81
2018-02-15T00:51:48.122Z,1011.76
2018-02-15T00:52:48.092Z,1011.77
2018-02-15T00:53:48.064Z,1011.86
2018-02-15T00:54:48.035Z,1011.76
2018-02-15T00:55:48.008Z,1011.78
2018-02-15T00:56:47.980Z,1011.74
2018-02-15T00:57:47.953Z,1011.73
2018-02-15T00:58:47.923Z,1011.70
2018-02-15T00:59:47.894Z,1011.62
2018-02-15T01:00:47.866Z,1011.58
2018-02-15T01:01:47.837Z,1011.57
2018-02-15T01:02:47.810Z,1011.53
2018-02-15T01:03:47.782Z,1011.67
2018-02-15T01:04:47.754Z,1011.68
2018-02-15T01:05:47.724Z,1011.70
2018-02-15T01:06:47.697Z,1011.75
2018-02-15T01:07:47.669Z,1011.66
2018-02-15T01:08:47.642Z,1011.71
2018-02-15T01:09:47.612Z,1011.74
2018-02-15T01:10:47.588Z,1011.79
2018-02-15T01:11:47.557Z,1011.78
2018-02-15T01:12:47.530Z,1011.77
2018-02-15T01:13:47.501Z,1011.80
2018-02-15T01:14:47.473Z,1011.85
2018-02-15T01:15:47.444Z,1011.83
2018-02-15T01:16:47.416Z,1011.88
2018-02-15T01:17:47.388Z,1011.78
2018-02-15T01:18:47.362Z,1011.73
2018-02-15T01:19:47.336Z,1011.71
2018-02-15T01:20:47.305Z,1011.67
2018-02-15T01:21:47.277Z,1011.68
2018-02-15T01:22:47.247Z,1011.70
2018-02-15T01:23:47.223Z,1011.62
2018-02-15T01:24:47.192Z,1011.62
2018-02-15T01:25:47.163Z,1011.61
2018-02-15T01:26:47.137Z,1011.59
2018-02-15T01:27:47.108Z,1011.57
2018-02-15T01:28:47.081Z,1011.57
2018-02-15T01:29:47.052Z,1011.45
2018-02-15T01:30:47.024Z,1011.48
2018-02-15T01:31:46.996Z,1011.49
2018-02-15T01:32:46.970Z,1011.47
2018-02-15T01:33:46.941Z,1011.44
2018-02-15T01:34:46.911Z,1011.38
2018-02-15T01:35:46.886Z,1011.39
2018-02-15T01:36:46.856Z,1011.40
2018-02-15T01:37:46.828Z,1011.41
2018-02-15T01:38:46.802Z,1011.47
2018-02-15T01:39:46.771Z,1011.41
2018-02-15T01:40:46.744Z,1011.42
2018-02-15T01:41:46.715Z,1011.43
2018-02-15T01:42:46.690Z,1011.37
2018-02-15T01:43:46.660Z,1011.42
2018-02-15T01:44:46.633Z,1011.34
2018-02-15T01:45:46.602Z,1011.34
2018-02-15T01:46:46.576Z,1011.43
2018-02-15T01:47:46.548Z,1011.45
2018-02-15T01:48:46.522Z,1011.41
2018-02-15T01:49:46.492Z,1011.40
2018-02-15T01:50:46.463Z,1011.35
2018-02-15T01:51:46.436Z,1011.37
2018-02-15T01:52:46.408Z,1011.37
2018-02-15T01:53:46.381Z,1011.28
2018-02-15T01:54:46.351Z,1011.29
2018-02-15T01:55:46.324Z,1011.30
2018-02-15T01:56:46.295Z,1011.22
2018-02-15T01:57:46.266Z,1011.26
2018-02-15T01:58:46.239Z,1011.25
2018-02-15T01:59:46.223Z,1011.22
2018-02-15T02:00:46.183Z,1011.23
2018-02-15T02:01:46.155Z,1011.22
2018-02-15T02:02:46.128Z,1011.24
2018-02-15T02:03:46.099Z,1011.28
2018-02-15T02:04:46.071Z,1011.18
2018-02-15T02:05:46.044Z,1011.25
2018-02-15T02:06:46.015Z,1011.25
2018-02-15T02:07:45.987Z,1011.27
2018-02-15T02:08:45.974Z,1011.20
2018-02-15T02:09:45.932Z,1011.15
2018-02-15T02:10:45.904Z,1011.20
2018-02-15T02:11:45.875Z,1011.13
2018-02-15T02:12:45.848Z,1011.14
2018-02-15T02:13:45.819Z,1011.13
2018-02-15T02:14:45.801Z,1011.10
2018-02-15T02:15:45.763Z,1011.13
2018-02-15T02:16:45.742Z,1011.08
2018-02-15T02:17:45.706Z,1011.13
2018-02-15T02:18:45.680Z,1011.11
2018-02-15T02:19:45.658Z,1011.13
2018-02-15T02:20:45.624Z,1011.11
2018-02-15T02:21:45.595Z,1011.14
2018-02-15T02:22:45.568Z,1011.17
2018-02-15T02:23:45.541Z,1011.18
2018-02-15T02:24:45.516Z,1011.18
2018-02-15T02:25:45.483Z,1011.21
2018-02-15T02:26:45.456Z,1011.11
2018-02-15T02:27:45.428Z,1011.15
2018-02-15T02:28:45.401Z,1011.15
2018-02-15T02:29:45.373Z,1011.11
2018-02-15T02:30:45.344Z,1011.09
2018-02-15T02:31:45.318Z,1011.12
2018-02-15T02:32:45.290Z,1011.11
2018-02-15T02:33:45.260Z,1011.08
2018-02-15T02:34:45.233Z,1011.08
2018-02-15T02:35:45.205Z,1011.09
2018-02-15T02:36:45.178Z,1011.12
2018-02-15T02:37:45.149Z,1011.10
2018-02-15T02:38:45.121Z,1011.09
2018-02-15T02:39:45.094Z,1011.09
2018-02-15T02:40:45.065Z,1011.08
2018-02-15T02:41:45.037Z,1011.10
2018-02-15T02:42:45.010Z,1011.14
2018-02-15T02:43:44.981Z,1011.09
2018-02-15T02:44:44.956Z,1011.08
2018-02-15T02:45:44.925Z,1011.06
2018-02-15T02:46:44.900Z,1011.03
2018-02-15T02:47:44.870Z,1011.07
2018-02-15T02:48:44.843Z,1011.06
2018-02-15T02:49:44.812Z,1011.03
2018-02-15T02:50:44.787Z,1011.08
2018-02-15T02:51:44.757Z,1011.06
2018-02-15T02:52:44.729Z,1011.06
2018-02-15T02:53:44.700Z,1011.14
2018-02-15T02:54:44.672Z,1011.11
2018-02-15T02:55:44.644Z,1011.07
2018-02-15T02:56:44.614Z,1011.09
2018-02-15T02:57:44.588Z,1011.09
2018-02-15T02:58:44.559Z,1011.03
2018-02-15T02:59:44.530Z,1011.05
2018-02-15T03:00:44.501Z,1011.07
2018-02-15T03:01:44.473Z,1011.16
2018-02-15T03:02:44.446Z,1011.11
2018-02-15T03:03:44.417Z,1011.11
2018-02-15T03:04:44.388Z,1011.17
2018-02-15T03:05:44.360Z,1011.13
2018-02-15T03:06:44.331Z,1011.04
2018-02-15T03:07:44.306Z,1011.06
2018-02-15T03:08:44.277Z,1011.01
2018-02-15T03:09:44.247Z,1011.00
2018-02-15T03:10:44.219Z,1010.99
2018-02-15T03:11:44.192Z,1010.95
2018-02-15T03:12:44.166Z,1010.90
2018-02-15T03:13:44.138Z,1010.90
2018-02-15T03:14:44.108Z,1010.87
2018-02-15T03:15:44.080Z,1010.81
2018-02-15T03:16:44.052Z,1010.79
2018-02-15T03:17:44.022Z,1010.77
2018-02-15T03:18:43.998Z,1010.80
2018-02-15T03:19:43.967Z,1010.72
2018-02-15T03:20:43.938Z,1010.67
2018-02-15T03:21:43.910Z,1010.68
2018-02-15T03:22:43.881Z,1010.67
2018-02-15T03:23:43.853Z,1010.60
2018-02-15T03:24:43.826Z,1010.63
2018-02-15T03:25:43.796Z,1010.60
2018-02-15T03:26:43.771Z,1010.53
2018-02-15T03:27:43.740Z,1010.54
2018-02-15T03:28:43.716Z,1010.47
2018-02-15T03:29:43.682Z,1010.47
2018-02-15T03:30:43.657Z,1010.50
2018-02-15T03:31:43.628Z,1010.53
2018-02-15T03:32:43.599Z,1010.57
2018-02-15T03:33:43.570Z,1010.57
2018-02-15T03:34:43.541Z,1010.53
2018-02-15T03:35:43.512Z,1010.47
2018-02-15T03:36:43.484Z,1010.45
2018-02-15T03:37:43.455Z,1010.43
2018-02-15T03:38:43.425Z,1010.41
2018-02-15T03:39:43.398Z,1010.41
2018-02-15T03:40:43.371Z,1010.46
2018-02-15T03:41:43.344Z,1010.43
2018-02-15T03:42:43.313Z,1010.36
2018-02-15T03:43:43.284Z,1010.39
2018-02-15T03:44:43.257Z,1010.40
2018-02-15T03:45:43.227Z,1010.36
2018-02-15T03:46:43.199Z,1010.29
2018-02-15T03:47:43.171Z,1010.26
2018-02-15T03:48:43.145Z,1010.32
2018-02-15T03:49:43.112Z,1010.26
2018-02-15T03:50:43.084Z,1010.24
2018-02-15T03:51:43.056Z,1010.23
2018-02-15T03:52:43.025Z,1010.20
2018-02-15T03:53:42.997Z,1010.21
2018-02-15T03:54:42.968Z,1010.15
2018-02-15T03:55:42.940Z,1010.08
2018-02-15T03:56:42.911Z,1010.09
2018-02-15T03:57:42.882Z,1010.10
2018-02-15T03:58:42.854Z,1010.14
2018-02-15T03:59:42.824Z,1010.03
2018-02-15T04:00:42.795Z,1010.06
2018-02-15T04:01:42.767Z,1010.07
2018-02-15T04:02:42.737Z,1010.08
2018-02-15T04:03:42.707Z,1010.06
2018-02-15T04:04:42.679Z,1010.05
2018-02-15T04:05:42.648Z,1010.10
2018-02-15T04:06:42.621Z,1010.03
2018-02-15T04:07:42.590Z,1010.01
2018-02-15T04:08:42.562Z,1009.94
2018-02-15T04:09:42.533Z,1009.95
2018-02-15T04:10:42.503Z,1009.94
2018-02-15T04:11:42.475Z,1009.88
2018-02-15T04:12:42.446Z,1009.85
2018-02-15T04:13:42.416Z,1009.77
2018-02-15T04:14:42.389Z,1009.74
2018-02-15T04:15:42.359Z,1009.72
2018-02-15T04:16:42.330Z,1009.75
2018-02-15T04:17:42.300Z,1009.74
2018-02-15T04:18:42.271Z,1009.77
2018-02-15T04:19:42.243Z,1009.75
2018-02-15T04:20:42.213Z,1009.67
2018-02-15T04:21:42.184Z,1009.66
2018-02-15T04:22:42.155Z,1009.60
2018-02-15T04:23:42.126Z,1009.59
2018-02-15T04:24:42.097Z,1009.61
2018-02-15T04:25:42.067Z,1009.59
2018-02-15T04:26:42.038Z,1009.54
2018-02-15T04:27:42.008Z,1009.61
2018-02-15T04:28:41.979Z,1009.62
2018-02-15T04:29:41.950Z,1009.50
2018-02-15T04:30:41.922Z,1009.62
2018-02-15T04:31:41.893Z,1009.56
2018-02-15T04:32:41.864Z,1009.53
2018-02-15T04:33:41.834Z,1009.49
2018-02-15T04:34:41.807Z,1009.45
2018-02-15T04:35:41.776Z,1009.46
2018-02-15T04:36:41.747Z,1009.34
2018-02-15T04:37:41.716Z,1009.38
2018-02-15T04:38:41.687Z,1009.34
2018-02-15T04:39:41.659Z,1009.34
2018-02-15T04:40:41.632Z,1009.41
2018-02-15T04:41:41.600Z,1009.34
2018-02-15T04:42:41.570Z,1009.27
2018-02-15T04:43:41.542Z,1009.19
2018-02-15T04:44:41.513Z,1009.24
2018-02-15T04:45:41.482Z,1009.27
2018-02-15T04:46:41.454Z,1009.38
2018-02-15T04:47:41.424Z,1009.39
2018-02-15T04:48:41.396Z,1009.45
2018-02-15T04:49:41.366Z,1009.40
2018-02-15T04:50:41.336Z,1009.44
2018-02-15T04:51:41.307Z,1009.50
2018-02-15T04:52:41.277Z,1009.47
2018-02-15T04:53:41.248Z,1009.45
2018-02-15T04:54:41.219Z,1009.49
2018-02-15T04:55:41.190Z,1009.56
2018-02-15T04:56:41.162Z,1009.63
2018-02-15T04:57:41.131Z,1009.68
2018-02-15T04:58:41.105Z,1009.67
2018-02-15T04:59:41.073Z,1009.64
2018-02-15T05:00:41.044Z,1009.67
2018-02-15T05:01:41.065Z,1009.70
2018-02-15T05:02:40.985Z,1009.81
2018-02-15T05:03:40.960Z,1009.77
2018-02-15T05:04:40.926Z,1009.70
2018-02-15T05:05:40.898Z,1009.79
2018-02-15T05:06:40.867Z,1009.72
2018-02-15T05:07:40.839Z,1009.78
2018-02-15T05:08:40.809Z,1009.80
2018-02-15T05:09:40.780Z,1009.78
2018-02-15T05:10:40.751Z,1009.78
2018-02-15T05:11:40.723Z,1009.81
2018-02-15T05:12:40.694Z,1009.78
2018-02-15T05:13:40.663Z,1009.86
2018-02-15T05:14:40.633Z,1009.84
2018-02-15T05:15:40.606Z,1009.86
2018-02-15T05:16:40.577Z,1009.86
2018-02-15T05:17:40.547Z,1009.87
2018-02-15T05:18:40.518Z,1009.87
2018-02-15T05:19:40.489Z,1009.75
2018-02-15T05:20:40.459Z,1009.79
2018-02-15T05:21:40.428Z,1009.84
2018-02-15T05:22:40.403Z,1009.94
2018-02-15T05:23:40.372Z,1009.93
2018-02-15T05:24:40.342Z,1010.00
2018-02-15T05:25:40.312Z,1010.01
2018-02-15T05:26:40.284Z,1010.00
2018-02-15T05:27:40.254Z,1009.97
2018-02-15T05:28:40.225Z,1009.92
2018-02-15T05:29:40.197Z,1009.84
2018-02-15T05:30:40.171Z,1009.91
2018-02-15T05:31:40.138Z,1009.95
2018-02-15T05:32:40.111Z,1009.92
2018-02-15T05:33:40.080Z,1009.93
2018-02-15T05:34:40.053Z,1009.92
2018-02-15T05:35:40.022Z,1009.93
2018-02-15T05:36:39.993Z,1009.88
2018-02-15T05:37:39.963Z,1009.83
2018-02-15T05:38:39.935Z,1009.87
2018-02-15T05:39:39.906Z,1009.79
2018-02-15T05:40:39.875Z,1009.81
2018-02-15T05:41:39.847Z,1009.79
2018-02-15T05:42:39.818Z,1009.81
2018-02-15T05:43:39.789Z,1009.78
2018-02-15T05:44:39.765Z,1009.77
2018-02-15T05:45:39.730Z,1009.83
2018-02-15T05:46:39.703Z,1009.83
2018-02-15T05:47:39.671Z,1009.84
2018-02-15T05:48:39.644Z,1009.80
2018-02-15T05:49:39.614Z,1009.81
2018-02-15T05:50:39.584Z,1009.70
2018-02-15T05:51:39.556Z,1009.73
2018-02-15T05:52:39.527Z,1009.78
2018-02-15T05:53:39.499Z,1009.79
2018-02-15T05:54:39.469Z,1009.69
2018-02-15T05:55:39.440Z,1009.70
2018-02-15T05:56:39.413Z,1009.70
2018-02-15T05:57:39.417Z,1009.62
2018-02-15T05:58:39.353Z,1009.65
2018-02-15T05:59:39.323Z,1009.65
2018-02-15T06:00:39.295Z,1009.67
2018-02-15T06:01:39.270Z,1009.62
2018-02-15T06:02:39.236Z,1009.70
2018-02-15T06:03:39.208Z,1009.66
2018-02-15T06:04:39.179Z,1009.65
2018-02-15T06:05:39.150Z,1009.66
2018-02-15T06:06:39.121Z,1009.66
2018-02-15T06:07:39.103Z,1009.63
2018-02-15T06:08:39.063Z,1009.60
2018-02-15T06:09:39.033Z,1009.60
2018-02-15T06:10:39.005Z,1009.61
2018-02-15T06:11:38.976Z,1009.66
2018-02-15T06:12:38.946Z,1009.64
2018-02-15T06:13:38.917Z,1009.67
2018-02-15T06:14:38.889Z,1009.63
2018-02-15T06:15:38.860Z,1009.64
2018-02-15T06:16:38.835Z,1009.58
2018-02-15T06:17:38.801Z,1009.59
2018-02-15T06:18:38.772Z,1009.62
2018-02-15T06:19:38.745Z,1009.57
2018-02-15T06:20:38.715Z,1009.63
2018-02-15T06:21:38.686Z,1009.63
2018-02-15T06:22:38.659Z,1009.63
2018-02-15T06:23:38.628Z,1009.63
2018-02-15T06:24:38.598Z,1009.59
2018-02-15T06:25:38.569Z,1009.64
2018-02-15T06:26:38.540Z,1009.60
2018-02-15T06:27:38.511Z,1009.64
2018-02-15T06:28:38.482Z,1009.56
2018-02-15T06:29:38.452Z,1009.55
2018-02-15T06:30:38.425Z,1009.57
2018-02-15T06:31:38.396Z,1009.61
2018-02-15T06:32:38.367Z,1009.56
2018-02-15T06:33:38.338Z,1009.60
2018-02-15T06:34:38.309Z,1009.61
2018-02-15T06:35:38.308Z,1009.55
2018-02-15T06:36:38.252Z,1009.54
2018-02-15T06:37:38.222Z,1009.60
2018-02-15T06:38:38.193Z,1009.59
2018-02-15T06:39:38.165Z,1009.63
2018-02-15T06:40:38.137Z,1009.64
2018-02-15T06:41:38.109Z,1009.60
2018-02-15T06:42:38.078Z,1009.62
2018-02-15T06:43:38.051Z,1009.57
2018-02-15T06:44:38.024Z,1009.57
2018-02-15T06:45:37.993Z,1009.63
2018-02-15T06:46:37.964Z,1009.65
2018-02-15T06:47:37.936Z,1009.62
2018-02-15T06:48:37.908Z,1009.62
2018-02-15T06:49:37.877Z,1009.73
2018-02-15T06:50:37.850Z,1009.74
2018-02-15T06:51:37.822Z,1009.77
2018-02-15T06:52:37.793Z,1009.75
2018-02-15T06:53:37.764Z,1009.75
2018-02-15T06:54:37.735Z,1009.75
2018-02-15T06:55:37.707Z,1009.73
2018-02-15T06:56:37.678Z,1009.64
2018-02-15T06:57:37.649Z,1009.61
2018-02-15T06:58:37.620Z,1009.66
2018-02-15T06:59:37.592Z,1009.63
2018-02-15T07:00:37.562Z,1009.62
2018-02-15T07:01:37.534Z,1009.58
2018-02-15T07:02:37.505Z,1009.52
2018-02-15T07:03:37.478Z,1009.58
2018-02-15T07:04:37.450Z,1009.61
2018-02-15T07:05:37.418Z,1009.58
2018-02-15T07:06:37.390Z,1009.59
2018-02-15T07:07:37.361Z,1009.56
2018-02-15T07:08:37.333Z,1009.58
2018-02-15T07:09:37.303Z,1009.54
2018-02-15T07:10:37.275Z,1009.55
2018-02-15T07:11:37.246Z,1009.52
2018-02-15T07:12:37.220Z,1009.62
2018-02-15T07:13:37.190Z,1009.64
2018-02-15T07:14:37.160Z,1009.67
2018-02-15T07:15:37.132Z,1009.60
2018-02-15T07:16:37.103Z,1009.59
2018-02-15T07:17:37.074Z,1009.64
2018-02-15T07:18:37.045Z,1009.57
2018-02-15T07:19:37.016Z,1009.61
2018-02-15T07:20:36.991Z,1009.54
2018-02-15T07:21:36.958Z,1009.51
2018-02-15T07:22:36.929Z,1009.51
2018-02-15T07:23:36.901Z,1009.47
2018-02-15T07:24:36.872Z,1009.50
2018-02-15T07:25:36.865Z,1009.50
2018-02-15T07:26:36.814Z,1009.56
2018-02-15T07:27:36.785Z,1009.62
2018-02-15T07:28:36.757Z,1009.70
2018-02-15T07:29:36.727Z,1009.70
2018-02-15T07:30:36.699Z,1009.68
2018-02-15T07:31:36.672Z,1009.66
2018-02-15T07:32:36.640Z,1009.72
2018-02-15T07:33:36.612Z,1009.62
2018-02-15T07:34:36.582Z,1009.64
2018-02-15T07:35:36.555Z,1009.64
2018-02-15T07:36:36.525Z,1009.66
2018-02-15T07:37:36.496Z,1009.67
2018-02-15T07:38:36.468Z,1009.63
2018-02-15T07:39:36.451Z,1009.69
2018-02-15T07:40:36.415Z,1009.72
2018-02-15T07:41:36.381Z,1009.70
2018-02-15T07:42:36.352Z,1009.69
2018-02-15T07:43:36.325Z,1009.58
2018-02-15T07:44:36.296Z,1009.56
2018-02-15T07:45:36.270Z,1009.52
2018-02-15T07:46:36.238Z,1009.53
2018-02-15T07:47:36.209Z,1009.46
2018-02-15T07:48:36.182Z,1009.52
2018-02-15T07:49:36.152Z,1009.62
2018-02-15T07:50:36.123Z,1009.65
2018-02-15T07:51:36.095Z,1009.71
2018-02-15T07:52:36.066Z,1009.69
2018-02-15T07:53:36.036Z,1009.68
2018-02-15T07:54:36.007Z,1009.66
2018-02-15T07:55:35.980Z,1009.63
2018-02-15T07:56:35.952Z,1009.62
2018-02-15T07:57:35.924Z,1009.60
2018-02-15T07:58:35.893Z,1009.54
2018-02-15T07:59:35.867Z,1009.53
2018-02-15T08:00:35.845Z,1009.60
2018-02-15T08:01:35.807Z,1009.57
2018-02-15T08:02:35.779Z,1009.62
2018-02-15T08:03:35.751Z,1009.66
2018-02-15T08:04:35.724Z,1009.68
2018-02-15T08:05:35.693Z,1009.76
2018-02-15T08:06:35.665Z,1009.75
2018-02-15T08:07:35.636Z,1009.73
2018-02-15T08:08:35.608Z,1009.71
2018-02-15T08:09:35.578Z,1009.71
2018-02-15T08:10:35.549Z,1009.79
2018-02-15T08:11:35.520Z,1009.68
2018-02-15T08:12:35.493Z,1009.69
2018-02-15T08:13:35.464Z,1009.72
2018-02-15T08:14:35.437Z,1009.68
2018-02-15T08:15:35.410Z,1009.72
2018-02-15T08:16:35.384Z,1009.73
2018-02-15T08:17:35.348Z,1009.75
2018-02-15T08:18:35.320Z,1009.80
2018-02-15T08:19:35.292Z,1009.79
2018-02-15T08:20:35.269Z,1009.80
2018-02-15T08:21:35.235Z,1009.80
2018-02-15T08:22:35.206Z,1009.80
2018-02-15T08:23:35.177Z,1009.77
2018-02-15T08:24:35.149Z,1009.75
2018-02-15T08:25:35.121Z,1009.76
2018-02-15T08:26:35.090Z,1009.77
2018-02-15T08:27:35.062Z,1009.75
2018-02-15T08:28:35.035Z,1009.78
2018-02-15T08:29:35.006Z,1009.78
2018-02-15T08:30:34.977Z,1009.77
2018-02-15T08:31:34.947Z,1009.77
2018-02-15T08:32:34.920Z,1009.81
2018-02-15T08:33:34.893Z,1009.78
2018-02-15T08:34:34.862Z,1009.78
2018-02-15T08:35:34.834Z,1009.71
2018-02-15T08:36:34.806Z,1009.79
2018-02-15T08:37:34.777Z,1009.81
2018-02-15T08:38:34.748Z,1009.79
2018-02-15T08:39:34.720Z,1009.81
2018-02-15T08:40:34.693Z,1009.85
2018-02-15T08:41:34.663Z,1009.81
2018-02-15T08:42:34.634Z,1009.86
2018-02-15T08:43:34.607Z,1009.84
2018-02-15T08:44:34.578Z,1009.87
2018-02-15T08:45:34.550Z,1009.95
2018-02-15T08:46:34.522Z,1010.04
2018-02-15T08:47:34.494Z,1009.99
2018-02-15T08:48:34.465Z,1010.01
2018-02-15T08:49:34.435Z,1010.00
2018-02-15T08:50:34.408Z,1009.96
2018-02-15T08:51:34.385Z,1009.95
2018-02-15T08:52:34.352Z,1009.97
2018-02-15T08:53:34.323Z,1010.04
2018-02-15T08:54:34.295Z,1010.06
2018-02-15T08:55:34.267Z,1010.03
2018-02-15T08:56:34.238Z,1009.97
2018-02-15T08:57:34.210Z,1009.95
2018-02-15T08:58:34.182Z,1009.97
2018-02-15T08:59:34.154Z,1010.03
2018-02-15T09:00:34.125Z,1009.99
2018-02-15T09:01:34.098Z,1010.03
2018-02-15T09:02:34.069Z,1010.02
2018-02-15T09:03:34.041Z,1010.02
2018-02-15T09:04:34.017Z,1010.03
2018-02-15T09:05:33.984Z,1009.94
2018-02-15T09:06:33.957Z,1009.87
2018-02-15T09:07:33.927Z,1009.94
2018-02-15T09:08:33.902Z,1010.00
2018-02-15T09:09:33.872Z,1009.99
2018-02-15T09:10:33.843Z,1010.06
2018-02-15T09:11:33.814Z,1010.01
2018-02-15T09:12:33.787Z,1009.95
2018-02-15T09:13:33.758Z,1010.06
2018-02-15T09:14:33.731Z,1010.10
2018-02-15T09:15:33.702Z,1010.11
2018-02-15T09:16:33.674Z,1010.12
2018-02-15T09:17:33.644Z,1010.12
2018-02-15T09:18:33.621Z,1010.12
2018-02-15T09:19:33.624Z,1010.01
2018-02-15T09:20:33.561Z,1010.00
2018-02-15T09:21:33.531Z,1009.97
2018-02-15T09:22:33.504Z,1010.12
2018-02-15T09:23:33.475Z,1010.20
2018-02-15T09:24:33.450Z,1010.22
2018-02-15T09:25:33.419Z,1010.22
2018-02-15T09:26:33.391Z,1010.22
2018-02-15T09:27:33.364Z,1010.17
2018-02-15T09:28:33.336Z,1010.16
2018-02-15T09:29:33.307Z,1010.15
2018-02-15T09:30:33.279Z,1010.19
2018-02-15T09:31:33.250Z,1010.22
2018-02-15T09:32:33.224Z,1010.24
2018-02-15T09:33:33.194Z,1010.18
2018-02-15T09:34:33.167Z,1010.19
2018-02-15T09:35:33.139Z,1010.28
2018-02-15T09:36:33.111Z,1010.35
2018-02-15T09:37:33.086Z,1010.35
2018-02-15T09:38:33.054Z,1010.33
2018-02-15T09:39:33.027Z,1010.36
2018-02-15T09:40:32.999Z,1010.37
2018-02-15T09:41:32.969Z,1010.27
2018-02-15T09:42:32.941Z,1010.29
2018-02-15T09:43:32.915Z,1010.30
2018-02-15T09:44:32.887Z,1010.31
2018-02-15T09:45:32.858Z,1010.34
2018-02-15T09:46:32.835Z,1010.31
2018-02-15T09:47:32.802Z,1010.28
2018-02-15T09:48:32.774Z,1010.32
2018-02-15T09:49:32.748Z,1010.34
2018-02-15T09:50:32.718Z,1010.39
2018-02-15T09:51:32.690Z,1010.41
2018-02-15T09:52:32.661Z,1010.39
2018-02-15T09:53:32.633Z,1010.44
2018-02-15T09:54:32.606Z,1010.41
2018-02-15T09:55:32.578Z,1010.36
2018-02-15T09:56:32.551Z,1010.38
2018-02-15T09:57:32.522Z,1010.37
2018-02-15T09:58:32.494Z,1010.38
2018-02-15T09:59:32.468Z,1010.38
2018-02-15T10:00:32.439Z,1010.44
2018-02-15T10:01:32.410Z,1010.43
2018-02-15T10:02:32.382Z,1010.47
2018-02-15T10:03:32.357Z,1010.44
2018-02-15T10:04:32.327Z,1010.42
2018-02-15T10:05:32.298Z,1010.36
2018-02-15T10:06:32.273Z,1010.36
2018-02-15T10:07:32.245Z,1010.29
2018-02-15T10:08:32.215Z,1010.32
2018-02-15T10:09:32.187Z,1010.29
2018-02-15T10:10:32.161Z,1010.30
2018-02-15T10:11:32.132Z,1010.33
2018-02-15T10:12:32.103Z,1010.28
2018-02-15T10:13:32.074Z,1010.24
2018-02-15T10:14:32.047Z,1010.23
2018-02-15T10:15:32.019Z,1010.29
2018-02-15T10:16:31.991Z,1010.26
2018-02-15T10:17:31.964Z,1010.25
2018-02-15T10:18:31.937Z,1010.24
2018-02-15T10:19:31.909Z,1010.27
2018-02-15T10:20:31.884Z,1010.30
2018-02-15T10:21:31.855Z,1010.32
2018-02-15T10:22:31.826Z,1010.31
2018-02-15T10:23:31.798Z,1010.29
2018-02-15T10:24:31.772Z,1010.34
2018-02-15T10:25:31.741Z,1010.32
2018-02-15T10:26:31.714Z,1010.32
2018-02-15T10:27:31.686Z,1010.38
2018-02-15T10:28:31.661Z,1010.35
2018-02-15T10:29:31.632Z,1010.35
2018-02-15T10:30:31.604Z,1010.35
2018-02-15T10:31:31.577Z,1010.33
2018-02-15T10:32:31.549Z,1010.37
2018-02-15T10:33:31.522Z,1010.43
2018-02-15T10:34:31.494Z,1010.44
2018-02-15T10:35:31.467Z,1010.51
2018-02-15T10:36:31.437Z,1010.49
2018-02-15T10:37:31.409Z,1010.54
2018-02-15T10:38:31.383Z,1010.49
2018-02-15T10:39:31.356Z,1010.46
2018-02-15T10:40:31.329Z,1010.42
2018-02-15T10:41:31.300Z,1010.61
2018-02-15T10:42:31.273Z,1010.66
2018-02-15T10:43:31.247Z,1010.65
2018-02-15T10:44:31.218Z,1010.62
2018-02-15T10:45:31.190Z,1010.55
2018-02-15T10:46:31.162Z,1010.49
2018-02-15T10:47:31.137Z,1010.44
2018-02-15T10:48:31.108Z,1010.41
2018-02-15T10:49:31.081Z,1010.51
2018-02-15T10:50:31.053Z,1010.66
2018-02-15T10:51:31.029Z,1010.67
2018-02-15T10:52:30.999Z,1010.64
2018-02-15T10:53:30.969Z,1010.68
2018-02-15T10:54:30.942Z,1010.67
2018-02-15T10:55:30.915Z,1010.67
2018-02-15T10:56:30.888Z,1010.58
2018-02-15T10:57:30.860Z,1010.60
2018-02-15T10:58:30.833Z,1010.57
2018-02-15T10:59:30.808Z,1010.65
2018-02-15T11:00:30.778Z,1010.67
2018-02-15T11:01:30.749Z,1010.71
2018-02-15T11:02:30.724Z,1010.70
2018-02-15T11:03:30.696Z,1010.66
2018-02-15T11:04:30.669Z,1010.64
2018-02-15T11:05:30.641Z,1010.63
2018-02-15T11:06:30.615Z,1010.65
2018-02-15T11:07:30.586Z,1010.62
2018-02-15T11:08:30.559Z,1010.59
2018-02-15T11:09:30.530Z,1010.57
2018-02-15T11:10:30.506Z,1010.62
2018-02-15T11:11:30.477Z,1010.62
2018-02-15T11:12:30.450Z,1010.59
2018-02-15T11:13:30.420Z,1010.61
2018-02-15T11:14:30.394Z,1010.60
2018-02-15T11:15:30.369Z,1010.63
2018-02-15T11:16:30.338Z,1010.60
2018-02-15T11:17:30.310Z,1010.61
2018-02-15T11:18:30.285Z,1010.61
2018-02-15T11:19:30.259Z,1010.68
2018-02-15T11:20:30.230Z,1010.73
2018-02-15T11:21:30.208Z,1010.72
2018-02-15T11:22:30.175Z,1010.70
2018-02-15T11:23:30.149Z,1010.70
2018-02-15T11:24:30.122Z,1010.71
2018-02-15T11:25:30.093Z,1010.66
2018-02-15T11:26:30.067Z,1010.64
2018-02-15T11:27:30.040Z,1010.60
2018-02-15T11:28:30.013Z,1010.64
2018-02-15T11:29:29.989Z,1010.72
2018-02-15T11:30:29.957Z,1010.67
2018-02-15T11:31:29.929Z,1010.71
2018-02-15T11:32:29.937Z,1010.68
2018-02-15T11:33:29.876Z,1010.65
2018-02-15T11:34:29.849Z,1010.61
2018-02-15T11:35:29.821Z,1010.59
2018-02-15T11:36:29.794Z,1010.63
2018-02-15T11:37:29.767Z,1010.65
2018-02-15T11:38:29.740Z,1010.62
2018-02-15T11:39:29.713Z,1010.59
2018-02-15T11:40:29.686Z,1010.63
2018-02-15T11:41:29.657Z,1010.61
2018-02-15T11:42:29.630Z,1010.64
2018-02-15T11:43:29.604Z,1010.69
2018-02-15T11:44:29.577Z,1010.70
2018-02-15T11:45:29.549Z,1010.69
2018-02-15T11:46:29.522Z,1010.70
2018-02-15T11:47:29.495Z,1010.66
2018-02-15T11:48:29.470Z,1010.68
2018-02-15T11:49:29.445Z,1010.64
2018-02-15T11:50:29.413Z,1010.65
2018-02-15T11:51:29.387Z,1010.71
2018-02-15T11:52:29.359Z,1010.72
2018-02-15T11:53:29.331Z,1010.72
2018-02-15T11:54:29.305Z,1010.69
2018-02-15T11:55:29.278Z,1010.66
2018-02-15T11:56:29.294Z,1010.64
2018-02-15T11:57:29.223Z,1010.62
2018-02-15T11:58:29.197Z,1010.60
2018-02-15T11:59:29.170Z,1010.68
2018-02-15T12:00:29.143Z,1010.66
2018-02-15T12:01:29.114Z,1010.60
2018-02-15T12:02:29.087Z,1010.58
2018-02-15T12:03:29.061Z,1010.55
2018-02-15T12:04:29.034Z,1010.59
2018-02-15T12:05:29.006Z,1010.60